createdAt,value
2022-12-11T00:01:37.177Z,104.07
2022-12-11T00:04:03.672Z,114.05
2022-12-11T00:06:30.271Z,91.00
2022-12-11T00:08:56.707Z,86.00
2022-12-11T00:11:23.682Z,109.95
2022-12-11T00:13:50.288Z,99.38
2022-12-11T00:16:16.727Z,103.90
2022-12-11T00:18:43.276Z,95.50
2022-12-11T00:21:13.128Z,106.47
2022-12-11T00:23:40.222Z,94.20
2022-12-11T00:26:13.822Z,95.97
2022-12-11T00:28:40.272Z,112.00
2022-12-11T00:31:08.448Z,100.03
2022-12-11T00:33:34.879Z,111.10
2022-12-11T00:36:01.360Z,93.82
2022-12-11T00:38:28.103Z,84.22
2022-12-11T00:40:58.619Z,91.82
2022-12-11T00:43:25.100Z,87.78
2022-12-11T00:45:51.463Z,92.05
2022-12-11T00:48:18.551Z,79.38
2022-12-11T00:50:44.957Z,89.40
2022-12-11T00:53:11.331Z,97.47
2022-12-11T00:55:39.896Z,75.40
2022-12-11T00:58:06.927Z,72.45
2022-12-11T01:00:34.065Z,81.85
2022-12-11T01:03:00.877Z,95.88
2022-12-11T01:05:27.437Z,75.17
2022-12-11T01:07:54.160Z,82.90
2022-12-11T01:10:20.963Z,83.57
2022-12-11T01:12:47.378Z,80.50
2022-12-11T01:15:13.901Z,82.75
2022-12-11T01:17:40.494Z,77.28
2022-12-11T01:20:07.304Z,83.63
2022-12-11T01:22:33.678Z,76.32
2022-12-11T01:25:00.088Z,92.97
2022-12-11T01:27:26.456Z,89.90
2022-12-11T01:29:53.036Z,98.10
2022-12-11T01:32:19.504Z,95.80
2022-12-11T01:34:45.839Z,87.70
2022-12-11T01:37:12.319Z,86.03
2022-12-11T01:39:38.750Z,87.18
2022-12-11T01:42:05.608Z,99.50
2022-12-11T01:44:31.877Z,83.55
2022-12-11T01:46:58.367Z,91.55
2022-12-11T01:49:27.290Z,90.15
2022-12-11T01:52:03.385Z,80.80
2022-12-11T01:54:30.368Z,84.00
2022-12-11T01:57:00.898Z,85.97
2022-12-11T01:59:32.243Z,80.63
2022-12-11T02:02:06.930Z,86.53
2022-12-11T02:04:37.360Z,93.90
2022-12-11T02:07:03.883Z,69.87
2022-12-11T02:09:35.562Z,77.38
2022-12-11T02:12:34.259Z,66.20
2022-12-11T02:15:12.238Z,73.15
2022-12-11T02:17:48.367Z,78.68
2022-12-11T02:20:27.564Z,71.35
2022-12-11T02:23:09.256Z,66.22
2022-12-11T02:25:53.609Z,60.20
2022-12-11T02:28:33.453Z,68.38
2022-12-11T02:31:07.239Z,73.57
2022-12-11T02:33:44.585Z,67.93
2022-12-11T02:36:14.003Z,67.47
2022-12-11T02:38:43.504Z,64.72
2022-12-11T02:41:11.778Z,69.28
2022-12-11T02:43:39.248Z,67.72
2022-12-11T02:46:08.098Z,58.00
2022-12-11T02:48:36.495Z,67.75
2022-12-11T02:51:05.419Z,59.92
2022-12-11T02:53:34.884Z,64.07
2022-12-11T02:56:10.982Z,72.00
2022-12-11T02:58:44.809Z,58.65
2022-12-11T03:01:11.468Z,55.83
2022-12-11T03:03:37.993Z,56.65
2022-12-11T03:06:04.569Z,48.85
2022-12-11T03:08:31.929Z,54.15
2022-12-11T03:10:58.448Z,52.35
2022-12-11T03:13:25.003Z,42.60
2022-12-11T03:16:08.101Z,39.83
2022-12-11T03:18:42.752Z,44.95
2022-12-11T03:21:24.554Z,41.50
2022-12-11T03:24:02.880Z,43.40
2022-12-11T03:26:33.112Z,41.80
2022-12-11T03:29:15.709Z,42.53
2022-12-11T03:31:59.387Z,48.00
2022-12-11T03:34:34.311Z,43.08
2022-12-11T03:37:02.154Z,37.63
2022-12-11T03:39:35.798Z,42.58
2022-12-11T03:42:05.766Z,46.58
2022-12-11T03:44:35.925Z,40.38
2022-12-11T03:47:06.803Z,44.35
2022-12-11T03:49:43.419Z,39.57
2022-12-11T03:52:12.772Z,45.53
2022-12-11T03:54:41.777Z,37.97
2022-12-11T03:57:12.174Z,37.90
2022-12-11T03:59:38.561Z,37.25
2022-12-11T04:02:04.994Z,34.45
2022-12-11T04:04:31.483Z,32.78
2022-12-11T04:06:57.876Z,41.15
2022-12-11T04:09:24.359Z,34.22
2022-12-11T04:11:50.788Z,33.63
2022-12-11T04:14:18.146Z,40.63
2022-12-11T04:16:44.544Z,31.92
2022-12-11T04:19:10.936Z,34.75
2022-12-11T04:21:39.640Z,34.85
2022-12-11T04:24:07.183Z,32.00
2022-12-11T04:26:33.533Z,34.55
2022-12-11T04:28:59.871Z,33.22
2022-12-11T04:31:26.376Z,33.63
2022-12-11T04:33:52.759Z,30.83
2022-12-11T04:36:19.205Z,33.53
2022-12-11T04:38:45.634Z,31.07
2022-12-11T04:41:14.303Z,29.48
2022-12-11T04:43:41.268Z,32.53
2022-12-11T04:46:12.269Z,25.20
2022-12-11T04:48:39.781Z,24.52
2022-12-11T04:51:07.492Z,28.63
2022-12-11T04:53:34.164Z,31.08
2022-12-11T04:56:00.871Z,27.42
2022-12-11T04:58:27.787Z,28.70
2022-12-11T05:00:54.226Z,32.10
2022-12-11T05:03:20.767Z,33.05
2022-12-11T05:05:49.155Z,32.35
2022-12-11T05:08:15.582Z,30.30
2022-12-11T05:10:47.089Z,31.23
2022-12-11T05:13:16.321Z,30.63
2022-12-11T05:15:42.746Z,36.78
2022-12-11T05:18:09.116Z,30.30
2022-12-11T05:20:35.435Z,31.05
2022-12-11T05:23:01.852Z,38.38
2022-12-11T05:25:28.221Z,39.83
2022-12-11T05:27:54.646Z,32.70
2022-12-11T05:30:22.027Z,34.30
2022-12-11T05:32:48.422Z,32.63
2022-12-11T05:35:14.915Z,31.92
2022-12-11T05:37:41.351Z,33.40
2022-12-11T05:40:08.443Z,35.67
2022-12-11T05:42:35.121Z,34.20
2022-12-11T05:45:01.500Z,38.03
2022-12-11T05:47:27.885Z,37.00
2022-12-11T05:49:54.294Z,34.35
2022-12-11T05:52:20.712Z,38.15
2022-12-11T05:54:49.873Z,35.88
2022-12-11T05:57:16.938Z,38.35
2022-12-11T05:59:43.418Z,39.13
2022-12-11T06:02:09.965Z,38.15
2022-12-11T06:04:36.527Z,36.47
2022-12-11T06:07:02.906Z,42.20
2022-12-11T06:09:29.328Z,37.30
2022-12-11T06:11:55.848Z,39.33
2022-12-11T06:14:22.176Z,43.70
2022-12-11T06:16:48.492Z,38.80
2022-12-11T06:19:15.764Z,38.53
2022-12-11T06:21:42.166Z,40.22
2022-12-11T06:24:11.288Z,37.38
2022-12-11T06:26:37.786Z,38.25
2022-12-11T06:29:07.652Z,39.90
2022-12-11T06:31:37.297Z,43.45
2022-12-11T06:34:03.603Z,42.38
2022-12-11T06:36:29.944Z,39.50
2022-12-11T06:38:56.459Z,40.53
2022-12-11T06:41:26.032Z,41.53
2022-12-11T06:43:52.481Z,38.00
2022-12-11T06:46:20.248Z,39.30
2022-12-11T06:48:47.719Z,33.85
2022-12-11T06:51:16.944Z,37.80
2022-12-11T06:53:43.560Z,43.53
2022-12-11T06:56:12.856Z,35.78
2022-12-11T06:58:40.166Z,35.78
2022-12-11T07:01:20.983Z,36.70
2022-12-11T07:03:47.583Z,34.50
2022-12-11T07:06:14.729Z,37.30
2022-12-11T07:08:41.650Z,32.67
2022-12-11T07:11:11.173Z,35.70
2022-12-11T07:13:37.511Z,40.00
2022-12-11T07:16:04.999Z,37.53
2022-12-11T07:18:31.535Z,36.90
2022-12-11T07:20:58.963Z,38.40
2022-12-11T07:23:25.511Z,34.88
2022-12-11T07:25:51.919Z,40.60
2022-12-11T07:28:18.252Z,36.33
2022-12-11T07:30:44.641Z,38.30
2022-12-11T07:33:11.101Z,42.65
2022-12-11T07:35:37.582Z,37.55
2022-12-11T07:38:04.105Z,44.03
2022-12-11T07:40:30.750Z,38.75
2022-12-11T07:42:57.260Z,35.60
2022-12-11T07:45:23.702Z,39.40
2022-12-11T07:47:50.069Z,38.97
2022-12-11T07:50:16.585Z,38.85
2022-12-11T07:52:42.958Z,39.53
2022-12-11T07:55:09.992Z,36.47
2022-12-11T07:57:36.970Z,36.55
2022-12-11T08:00:04.865Z,44.08
2022-12-11T08:02:35.569Z,45.08
2022-12-11T08:05:04.035Z,42.17
2022-12-11T08:07:30.380Z,46.30
2022-12-11T08:09:56.756Z,40.95
2022-12-11T08:12:23.071Z,41.50
2022-12-11T08:14:49.469Z,41.60
2022-12-11T08:17:15.846Z,40.78
2022-12-11T08:19:42.289Z,32.67
2022-12-11T08:22:08.742Z,36.08
2022-12-11T08:24:35.173Z,38.47
2022-12-11T08:27:01.608Z,31.95
2022-12-11T08:29:28.049Z,36.45
2022-12-11T08:31:54.400Z,37.33
2022-12-11T08:34:20.777Z,43.08
2022-12-11T08:36:47.159Z,32.00
2022-12-11T08:39:13.550Z,35.05
2022-12-11T08:41:39.925Z,35.10
2022-12-11T08:44:16.369Z,35.27
2022-12-11T08:46:44.322Z,33.35
2022-12-11T08:49:10.645Z,32.83
2022-12-11T08:51:37.046Z,35.45
2022-12-11T08:54:03.534Z,33.55
2022-12-11T08:56:30.132Z,40.47
2022-12-11T08:59:00.178Z,35.45
2022-12-11T09:01:27.544Z,33.70
2022-12-11T09:03:55.904Z,36.33
2022-12-11T09:06:25.104Z,35.60
2022-12-11T09:08:53.411Z,39.88
2022-12-11T09:11:26.372Z,39.42
2022-12-11T09:13:53.303Z,35.35
2022-12-11T09:16:22.534Z,40.10
2022-12-11T09:18:51.758Z,34.30
2022-12-11T09:21:20.444Z,31.00
2022-12-11T09:23:47.026Z,31.17
2022-12-11T09:26:15.875Z,32.25
2022-12-11T09:28:46.688Z,32.47
2022-12-11T09:31:15.021Z,29.08
2022-12-11T09:33:41.543Z,33.77
2022-12-11T09:36:08.819Z,31.02
2022-12-11T09:38:35.804Z,28.92
2022-12-11T09:41:16.129Z,30.67
2022-12-11T09:43:49.451Z,31.85
2022-12-11T09:46:17.825Z,33.97
2022-12-11T09:48:49.099Z,31.10
2022-12-11T09:51:27.814Z,38.67
2022-12-11T09:53:59.775Z,35.50
2022-12-11T09:56:52.115Z,30.70
2022-12-11T09:59:41.899Z,33.20
2022-12-11T10:02:20.562Z,33.10
2022-12-11T10:05:12.761Z,33.72
2022-12-11T10:07:52.211Z,32.95
2022-12-11T10:10:46.207Z,30.48
2022-12-11T10:13:27.384Z,34.63
2022-12-11T10:16:00.320Z,34.03
2022-12-11T10:18:29.538Z,37.58
2022-12-11T10:20:56.431Z,37.35
2022-12-11T10:23:31.894Z,37.70
2022-12-11T10:26:15.485Z,35.90
2022-12-11T10:28:42.183Z,38.65
2022-12-11T10:31:24.220Z,37.60
2022-12-11T10:34:02.580Z,33.00
2022-12-11T10:36:40.893Z,34.13
2022-12-11T10:39:17.556Z,31.77
2022-12-11T10:41:46.921Z,34.97
2022-12-11T10:44:23.484Z,35.47
2022-12-11T10:47:02.396Z,32.95
2022-12-11T10:49:31.741Z,38.30
2022-12-11T10:51:59.083Z,34.03
2022-12-11T10:54:36.473Z,36.20
2022-12-11T10:57:04.586Z,36.88
2022-12-11T10:59:42.946Z,33.17
2022-12-11T11:02:31.465Z,34.97
2022-12-11T11:05:00.841Z,35.27
2022-12-11T11:07:30.324Z,31.70
2022-12-11T11:10:11.773Z,37.75
2022-12-11T11:12:39.283Z,39.13
2022-12-11T11:15:16.196Z,34.35
2022-12-11T11:17:55.464Z,33.80
2022-12-11T11:20:26.543Z,33.83
2022-12-11T11:23:11.139Z,38.40
2022-12-11T11:25:37.552Z,35.13
2022-12-11T11:28:06.775Z,37.50
2022-12-11T11:30:39.388Z,35.83
2022-12-11T11:33:15.703Z,37.78
2022-12-11T11:35:58.930Z,36.63
2022-12-11T11:38:29.650Z,32.65
2022-12-11T11:41:04.857Z,33.53
2022-12-11T11:43:43.039Z,33.10
2022-12-11T11:46:19.099Z,31.60
2022-12-11T11:48:53.941Z,39.63
2022-12-11T11:51:23.153Z,34.38
2022-12-11T11:53:53.514Z,35.47
2022-12-11T11:56:32.842Z,31.67
2022-12-11T11:59:25.105Z,32.28
2022-12-11T12:01:55.410Z,32.00
2022-12-11T12:04:22.603Z,29.38
2022-12-11T12:07:07.427Z,31.20
2022-12-11T12:09:36.702Z,28.88
2022-12-11T12:12:18.161Z,30.73
2022-12-11T12:14:52.664Z,31.48
2022-12-11T12:17:37.610Z,32.78
2022-12-11T12:20:18.763Z,33.08
2022-12-11T12:22:54.359Z,32.45
2022-12-11T12:25:40.706Z,27.48
2022-12-11T12:28:26.597Z,30.58
2022-12-11T12:31:07.713Z,32.67
2022-12-11T12:34:10.924Z,31.50
2022-12-11T12:36:59.406Z,28.73
2022-12-11T12:39:53.309Z,30.70
2022-12-11T12:42:30.028Z,33.30
2022-12-11T12:45:14.634Z,32.95
2022-12-11T12:47:46.713Z,31.83
2022-12-11T12:50:20.171Z,32.03
2022-12-11T12:52:47.992Z,26.98
2022-12-11T12:55:28.223Z,33.72
2022-12-11T12:57:57.288Z,31.33
2022-12-11T13:00:32.426Z,31.88
2022-12-11T13:03:02.362Z,31.05
2022-12-11T13:05:34.294Z,32.53
2022-12-11T13:08:05.088Z,31.92
2022-12-11T13:10:37.082Z,33.00
2022-12-11T13:13:05.427Z,31.50
2022-12-11T13:15:37.817Z,29.60
2022-12-11T13:18:26.983Z,31.95
2022-12-11T13:20:53.402Z,33.20
2022-12-11T13:23:28.637Z,29.65
2022-12-11T13:26:04.090Z,30.55
2022-12-11T13:28:34.044Z,31.47
2022-12-11T13:31:15.336Z,34.38
2022-12-11T13:33:50.833Z,33.58
2022-12-11T13:36:24.924Z,38.63
2022-12-11T13:39:20.484Z,36.08
2022-12-11T13:41:51.847Z,36.15
2022-12-11T13:44:28.043Z,35.25
2022-12-11T13:46:58.004Z,33.28
2022-12-11T13:49:35.852Z,34.00
2022-12-11T13:52:02.341Z,35.53
2022-12-11T13:54:31.388Z,37.47
2022-12-11T13:57:06.557Z,36.22
2022-12-11T13:59:34.303Z,37.38
2022-12-11T14:02:09.952Z,31.70
2022-12-11T14:04:37.767Z,40.53
2022-12-11T14:07:08.822Z,36.67
2022-12-11T14:09:39.677Z,35.72
2022-12-11T14:12:06.310Z,37.13
2022-12-11T14:14:43.308Z,44.05
2022-12-11T14:17:14.313Z,36.45
2022-12-11T14:19:47.544Z,40.40
2022-12-11T14:22:23.403Z,35.88
2022-12-11T14:24:55.749Z,41.15
2022-12-11T14:27:23.203Z,40.33
2022-12-11T14:29:50.171Z,39.08
2022-12-11T14:32:34.856Z,42.80
2022-12-11T14:35:05.555Z,36.78
2022-12-11T14:37:34.410Z,38.10
2022-12-11T14:40:05.407Z,37.60
2022-12-11T14:42:46.404Z,39.90
2022-12-11T14:45:15.458Z,43.63
2022-12-11T14:47:43.458Z,36.22
2022-12-11T14:50:25.934Z,38.45
2022-12-11T14:52:56.918Z,39.70
2022-12-11T14:55:23.659Z,44.63
2022-12-11T14:57:56.244Z,35.07
2022-12-11T15:00:26.558Z,37.70
2022-12-11T15:03:02.930Z,38.28
2022-12-11T15:05:29.845Z,38.83
2022-12-11T15:08:18.148Z,35.08
2022-12-11T15:11:11.112Z,42.00
2022-12-11T15:13:47.723Z,40.88
2022-12-11T15:16:15.091Z,43.03
2022-12-11T15:18:42.627Z,39.45
2022-12-11T15:21:11.941Z,36.13
2022-12-11T15:23:51.947Z,49.65
2022-12-11T15:26:20.564Z,37.35
2022-12-11T15:28:47.256Z,40.70
2022-12-11T15:31:29.114Z,41.33
2022-12-11T15:33:56.291Z,38.92
2022-12-11T15:36:36.665Z,42.42
2022-12-11T15:39:04.799Z,42.42
2022-12-11T15:41:31.201Z,43.88
2022-12-11T15:43:59.189Z,41.17
2022-12-11T15:46:26.354Z,40.85
2022-12-11T15:48:53.178Z,45.60
2022-12-11T15:51:19.643Z,42.10
2022-12-11T15:53:46.007Z,41.25
2022-12-11T15:56:16.353Z,37.78
2022-12-11T15:58:45.447Z,38.30
2022-12-11T16:01:11.880Z,36.33
2022-12-11T16:03:38.458Z,40.45
2022-12-11T16:06:05.019Z,39.75
2022-12-11T16:08:31.498Z,37.25
2022-12-11T16:10:57.933Z,39.28
2022-12-11T16:13:24.414Z,38.40
2022-12-11T16:15:51.350Z,37.38
2022-12-11T16:18:23.126Z,36.40
2022-12-11T16:20:50.615Z,38.80
2022-12-11T16:23:18.027Z,37.38
2022-12-11T16:25:46.483Z,39.58
2022-12-11T16:28:15.219Z,35.70
2022-12-11T16:30:42.194Z,34.53
2022-12-11T16:33:12.817Z,39.50
2022-12-11T16:35:39.979Z,38.25
2022-12-11T16:38:06.435Z,36.43
2022-12-11T16:40:32.850Z,35.95
2022-12-11T16:42:59.287Z,34.75
2022-12-11T16:45:26.803Z,35.30
2022-12-11T16:47:53.525Z,38.65
2022-12-11T16:50:20.153Z,44.63
2022-12-11T16:52:46.608Z,35.63
2022-12-11T16:55:13.710Z,38.30
2022-12-11T16:57:41.601Z,40.75
2022-12-11T17:00:10.494Z,36.05
2022-12-11T17:02:36.947Z,37.43
2022-12-11T17:05:04.150Z,34.95
2022-12-11T17:07:33.802Z,35.80
2022-12-11T17:10:00.460Z,41.22
2022-12-11T17:12:28.896Z,38.05
2022-12-11T17:14:56.389Z,34.22
2022-12-11T17:17:22.796Z,40.95
2022-12-11T17:19:49.178Z,36.92
2022-12-11T17:22:15.608Z,36.53
2022-12-11T17:24:42.005Z,35.67
2022-12-11T17:27:08.427Z,38.90
2022-12-11T17:29:34.795Z,35.25
2022-12-11T17:32:01.311Z,35.85
2022-12-11T17:34:29.870Z,29.58
2022-12-11T17:36:59.608Z,37.60
2022-12-11T17:39:26.146Z,37.38
2022-12-11T17:41:52.685Z,29.67
2022-12-11T17:44:19.115Z,34.35
2022-12-11T17:46:45.500Z,28.67
2022-12-11T17:49:11.899Z,26.73
2022-12-11T17:51:38.378Z,27.93
2022-12-11T17:54:04.829Z,29.25
2022-12-11T17:56:31.241Z,26.95
2022-12-11T17:58:58.024Z,30.02
2022-12-11T18:01:24.486Z,29.08
2022-12-11T18:03:50.975Z,30.23
2022-12-11T18:06:17.574Z,31.90
2022-12-11T18:08:44.639Z,35.42
2022-12-11T18:11:16.528Z,29.75
2022-12-11T18:13:44.140Z,34.53
2022-12-11T18:16:28.332Z,34.42
2022-12-11T18:18:54.941Z,29.73
2022-12-11T18:21:27.942Z,32.70
2022-12-11T18:23:54.854Z,30.48
2022-12-11T18:26:22.071Z,32.33
2022-12-11T18:28:49.644Z,31.88
2022-12-11T18:31:16.750Z,34.13
2022-12-11T18:33:44.668Z,32.38
2022-12-11T18:36:13.535Z,32.13
2022-12-11T18:38:40.939Z,39.67
2022-12-11T18:41:09.371Z,30.27
2022-12-11T18:43:36.400Z,35.80
2022-12-11T18:46:07.260Z,31.95
2022-12-11T18:48:34.054Z,32.08
2022-12-11T18:51:00.628Z,28.48
2022-12-11T18:53:27.237Z,30.77
2022-12-11T18:56:00.031Z,29.77
2022-12-11T18:58:27.000Z,34.28
2022-12-11T19:00:53.481Z,32.95
2022-12-11T19:03:19.954Z,29.67
2022-12-11T19:05:46.432Z,31.90
2022-12-11T19:08:13.314Z,31.27
2022-12-11T19:10:45.472Z,33.10
2022-12-11T19:13:12.504Z,30.27
2022-12-11T19:15:41.227Z,32.75
2022-12-11T19:18:09.977Z,27.45
2022-12-11T19:20:49.199Z,31.13
2022-12-11T19:23:16.435Z,34.92
2022-12-11T19:25:45.416Z,27.98
2022-12-11T19:28:12.432Z,27.00
2022-12-11T19:30:46.870Z,32.75
2022-12-11T19:33:13.665Z,36.33
2022-12-11T19:35:40.649Z,36.30
2022-12-11T19:38:07.271Z,32.47
2022-12-11T19:40:38.288Z,28.00
2022-12-11T19:43:04.732Z,26.48
2022-12-11T19:45:31.066Z,27.85
2022-12-11T19:47:57.501Z,30.33
2022-12-11T19:50:23.798Z,28.65
2022-12-11T19:52:50.145Z,30.08
2022-12-11T19:55:16.500Z,27.27
2022-12-11T19:57:42.977Z,28.67
2022-12-11T20:00:09.786Z,36.30
2022-12-11T20:02:36.207Z,31.85
2022-12-11T20:05:03.129Z,30.85
2022-12-11T20:07:30.818Z,30.40
2022-12-11T20:09:57.468Z,29.17
2022-12-11T20:12:23.918Z,26.75
2022-12-11T20:14:50.284Z,29.30
2022-12-11T20:17:16.732Z,29.10
2022-12-11T20:19:43.324Z,27.75
2022-12-11T20:22:10.251Z,29.38
2022-12-11T20:24:36.938Z,30.38
2022-12-11T20:27:03.460Z,28.20
2022-12-11T20:29:29.934Z,30.33
2022-12-11T20:31:56.456Z,28.93
2022-12-11T20:34:22.998Z,27.27
2022-12-11T20:36:51.914Z,26.85
2022-12-11T20:39:18.290Z,25.58
2022-12-11T20:41:44.666Z,28.85
2022-12-11T20:44:11.026Z,27.65
2022-12-11T20:46:37.405Z,26.70
2022-12-11T20:49:03.885Z,23.33
2022-12-11T20:51:30.408Z,24.25
2022-12-11T20:53:56.912Z,27.35
2022-12-11T20:56:23.715Z,25.57
2022-12-11T20:58:50.198Z,23.23
2022-12-11T21:01:18.990Z,24.50
2022-12-11T21:03:45.709Z,28.38
2022-12-11T21:06:33.274Z,27.38
2022-12-11T21:09:09.445Z,25.42
2022-12-11T21:11:35.829Z,29.05
2022-12-11T21:14:02.591Z,24.17
2022-12-11T21:16:29.347Z,27.00
2022-12-11T21:18:56.698Z,21.60
2022-12-11T21:21:23.714Z,20.80
2022-12-11T21:23:50.282Z,29.45
2022-12-11T21:26:17.087Z,28.90
2022-12-11T21:28:44.345Z,26.63
2022-12-11T21:31:14.292Z,30.77
2022-12-11T21:33:40.864Z,29.35
2022-12-11T21:36:07.947Z,22.60
2022-12-11T21:38:34.801Z,26.38
2022-12-11T21:41:34.669Z,26.92
2022-12-11T21:46:47.479Z,25.07
2022-12-11T21:49:14.162Z,26.15
2022-12-11T21:51:46.808Z,23.02
2022-12-11T21:54:18.543Z,29.80
2022-12-11T21:56:45.889Z,21.67
2022-12-11T21:59:12.860Z,24.00
2022-12-11T22:01:44.582Z,22.80
2022-12-11T22:04:11.857Z,23.17
2022-12-11T22:06:39.287Z,23.35
2022-12-11T22:09:05.800Z,23.83
2022-12-11T22:11:34.688Z,22.95
2022-12-11T22:14:01.802Z,26.08
2022-12-11T22:16:29.581Z,21.88
2022-12-11T22:18:55.901Z,22.25
2022-12-11T22:21:22.238Z,22.92
2022-12-11T22:23:48.678Z,27.85
2022-12-11T22:26:21.476Z,24.98
2022-12-11T22:28:48.406Z,24.23
2022-12-11T22:31:16.725Z,26.65
2022-12-11T22:33:43.282Z,24.63
2022-12-11T22:36:10.066Z,26.92
2022-12-11T22:38:36.792Z,27.13
2022-12-11T22:41:25.636Z,22.52
2022-12-11T22:43:52.728Z,21.85
2022-12-11T22:46:22.583Z,23.08
2022-12-11T22:48:49.802Z,24.73
2022-12-11T22:51:16.561Z,24.15
2022-12-11T22:53:43.021Z,26.00
2022-12-11T22:56:14.006Z,26.83
2022-12-11T22:58:40.722Z,22.35
2022-12-11T23:01:20.486Z,25.97
2022-12-11T23:03:48.137Z,23.08
2022-12-11T23:06:17.913Z,22.10
2022-12-11T23:08:45.138Z,19.52
2022-12-11T23:11:24.099Z,22.10
2022-12-11T23:13:50.708Z,23.03
2022-12-11T23:16:17.271Z,22.25
2022-12-11T23:18:43.734Z,22.25
2022-12-11T23:21:11.531Z,24.77
2022-12-11T23:23:38.320Z,21.98
2022-12-11T23:26:06.751Z,23.90
2022-12-11T23:28:33.187Z,19.45
2022-12-11T23:30:59.695Z,23.27
2022-12-11T23:33:26.181Z,19.08
2022-12-11T23:35:52.515Z,20.55
2022-12-11T23:38:18.905Z,20.75
2022-12-11T23:40:45.320Z,24.27
2022-12-11T23:43:11.829Z,22.20
2022-12-11T23:45:38.262Z,21.65
2022-12-11T23:48:04.597Z,21.10
2022-12-11T23:50:30.930Z,22.33
2022-12-11T23:52:57.425Z,24.05
2022-12-11T23:55:23.744Z,21.55
2022-12-11T23:57:50.038Z,20.38
